createdAt,value
2022-12-01T00:01:49.452Z,38.78
2022-12-01T00:04:19.001Z,37.45
2022-12-01T00:06:48.439Z,39.80
2022-12-01T00:09:36.016Z,36.03
2022-12-01T00:12:05.582Z,37.10
2022-12-01T00:14:35.075Z,36.93
2022-12-01T00:17:05.606Z,38.37
2022-12-01T00:19:35.115Z,38.73
2022-12-01T00:22:04.540Z,37.70
2022-12-01T00:24:34.086Z,38.40
2022-12-01T00:27:03.511Z,36.23
2022-12-01T00:29:32.958Z,34.18
2022-12-01T00:32:02.507Z,37.83
2022-12-01T00:34:32.237Z,36.25
2022-12-01T00:37:01.826Z,37.28
2022-12-01T00:39:31.367Z,35.52
2022-12-01T00:42:00.809Z,36.65
2022-12-01T00:44:30.235Z,36.83
2022-12-01T00:46:59.693Z,36.53
2022-12-01T00:49:29.187Z,36.58
2022-12-01T00:51:59.441Z,37.15
2022-12-01T00:54:30.538Z,37.40
2022-12-01T00:57:01.404Z,37.80
2022-12-01T00:59:30.949Z,36.03
2022-12-01T01:02:00.447Z,36.03
2022-12-01T01:04:34.899Z,34.38
2022-12-01T01:07:04.986Z,32.23
2022-12-01T01:09:34.502Z,30.60
2022-12-01T01:12:04.085Z,31.77
2022-12-01T01:14:33.660Z,31.65
2022-12-01T01:17:03.945Z,32.55
2022-12-01T01:19:33.412Z,32.53
2022-12-01T01:22:02.922Z,32.33
2022-12-01T01:24:32.379Z,33.75
2022-12-01T01:27:01.822Z,35.25
2022-12-01T01:29:31.254Z,32.70
2022-12-01T01:32:00.714Z,34.03
2022-12-01T01:34:30.216Z,32.42
2022-12-01T01:36:59.713Z,33.70
2022-12-01T01:39:29.312Z,34.95
2022-12-01T01:41:58.736Z,36.70
2022-12-01T01:44:46.172Z,35.40
2022-12-01T01:47:18.196Z,34.83
2022-12-01T01:49:50.259Z,35.73
2022-12-01T01:52:20.022Z,33.25
2022-12-01T01:54:52.327Z,33.90
2022-12-01T01:57:27.659Z,33.92
2022-12-01T02:00:00.312Z,34.03
2022-12-01T02:02:29.797Z,34.65
2022-12-01T02:05:02.509Z,33.73
2022-12-01T02:07:33.132Z,33.30
2022-12-01T02:10:02.682Z,33.67
2022-12-01T02:12:50.014Z,33.98
2022-12-01T02:15:31.407Z,34.63
2022-12-01T02:18:22.056Z,34.58
2022-12-01T02:20:59.660Z,33.63
2022-12-01T02:23:32.167Z,35.35
2022-12-01T02:26:30.352Z,35.80
2022-12-01T02:29:06.267Z,37.57
2022-12-01T02:31:41.578Z,36.63
2022-12-01T02:34:25.867Z,33.85
2022-12-01T02:37:01.090Z,35.80
2022-12-01T02:39:45.544Z,33.90
2022-12-01T02:42:31.927Z,33.20
2022-12-01T02:45:05.145Z,34.13
2022-12-01T02:47:36.801Z,33.88
2022-12-01T02:50:08.871Z,35.58
2022-12-01T02:52:40.458Z,32.15
2022-12-01T02:55:10.199Z,35.60
2022-12-01T02:57:39.922Z,36.20
2022-12-01T03:00:12.496Z,35.13
2022-12-01T03:05:32.447Z,32.50
2022-12-01T03:08:28.641Z,32.75
2022-12-01T03:11:00.433Z,33.95
2022-12-01T03:13:39.035Z,33.00
2022-12-01T03:16:20.210Z,34.88
2022-12-01T03:18:55.543Z,35.98
2022-12-01T03:21:28.066Z,35.15
2022-12-01T03:25:45.385Z,36.70
2022-12-01T03:28:21.528Z,34.18
2022-12-01T03:30:51.166Z,36.33
2022-12-01T03:35:53.962Z,32.75
2022-12-01T03:38:26.087Z,32.95
2022-12-01T03:40:58.654Z,32.20
2022-12-01T03:43:31.171Z,33.92
2022-12-01T03:46:21.770Z,35.20
2022-12-01T03:48:54.170Z,34.63
2022-12-01T03:51:32.953Z,36.68
2022-12-01T03:54:08.000Z,35.60
2022-12-01T03:56:43.446Z,34.98
2022-12-01T03:59:15.639Z,34.13
2022-12-01T04:01:46.927Z,35.97
2022-12-01T04:04:16.725Z,34.18
2022-12-01T04:06:51.294Z,36.95
2022-12-01T04:09:20.714Z,36.55
2022-12-01T04:12:08.327Z,33.90
2022-12-01T04:14:37.797Z,36.05
2022-12-01T04:17:07.235Z,38.07
2022-12-01T04:19:36.671Z,34.95
2022-12-01T04:22:06.134Z,36.28
2022-12-01T04:24:35.569Z,37.10
2022-12-01T04:27:05.071Z,37.63
2022-12-01T04:29:34.665Z,38.55
2022-12-01T04:32:04.159Z,35.30
2022-12-01T04:34:33.982Z,34.95
2022-12-01T04:37:03.870Z,33.98
2022-12-01T04:39:33.364Z,33.98
2022-12-01T04:42:03.577Z,36.45
2022-12-01T04:44:34.979Z,35.68
2022-12-01T04:47:07.212Z,37.17
2022-12-01T04:49:37.359Z,38.10
2022-12-01T04:52:07.505Z,38.05
2022-12-01T04:54:36.951Z,38.00
2022-12-01T04:59:35.029Z,37.40
2022-12-01T05:02:04.736Z,35.23
2022-12-01T05:04:35.896Z,33.30
2022-12-01T05:07:05.496Z,32.15
2022-12-01T05:09:34.998Z,32.90
2022-12-01T05:12:04.509Z,33.98
2022-12-01T05:14:33.939Z,35.55
2022-12-01T05:19:50.001Z,33.20
2022-12-01T05:22:36.470Z,31.90
2022-12-01T05:24:50.970Z,33.63
2022-12-01T05:27:20.484Z,32.98
2022-12-01T05:32:19.202Z,30.93
2022-12-01T05:34:48.677Z,30.80
2022-12-01T05:37:18.185Z,34.67
2022-12-01T05:39:47.992Z,49.00
2022-12-01T05:42:17.919Z,50.45
2022-12-01T05:44:47.446Z,32.28
2022-12-01T05:47:16.945Z,30.35
2022-12-01T05:49:46.513Z,30.50
2022-12-01T05:52:16.327Z,32.58
2022-12-01T05:54:45.824Z,30.02
2022-12-01T05:57:15.255Z,30.40
2022-12-01T05:59:44.719Z,28.60
2022-12-01T06:02:14.257Z,28.10
2022-12-01T06:04:44.547Z,28.80
2022-12-01T06:07:13.987Z,28.60
2022-12-01T06:09:45.077Z,27.80
2022-12-01T06:12:14.687Z,30.20
2022-12-01T06:14:44.188Z,26.42
2022-12-01T06:17:13.719Z,27.53
2022-12-01T06:19:43.617Z,26.60
2022-12-01T06:22:13.052Z,24.20
2022-12-01T06:24:42.663Z,22.37
2022-12-01T06:27:12.096Z,21.95
2022-12-01T06:29:42.371Z,22.37
2022-12-01T06:32:12.068Z,24.60
2022-12-01T06:34:41.623Z,20.35
2022-12-01T06:37:12.786Z,19.35
2022-12-01T06:39:43.052Z,18.67
2022-12-01T06:42:12.679Z,18.07
2022-12-01T06:44:42.229Z,17.80
2022-12-01T06:47:11.706Z,16.87
2022-12-01T06:49:41.168Z,19.00
2022-12-01T06:52:11.732Z,16.80
2022-12-01T06:54:41.260Z,17.07
2022-12-01T06:57:11.103Z,17.32
2022-12-01T06:59:40.545Z,17.62
2022-12-01T07:02:13.146Z,16.15
2022-12-01T07:04:42.543Z,14.17
2022-12-01T07:07:12.713Z,15.03
2022-12-01T07:09:42.198Z,13.78
2022-12-01T07:12:11.633Z,14.33
2022-12-01T07:14:42.507Z,14.15
2022-12-01T07:17:11.933Z,15.08
2022-12-01T07:19:41.403Z,13.28
2022-12-01T07:22:10.870Z,14.20
2022-12-01T07:24:40.301Z,15.43
2022-12-01T07:34:36.014Z,14.35
2022-12-01T07:37:05.534Z,14.25
2022-12-01T07:39:35.032Z,17.27
2022-12-01T07:42:05.046Z,14.73
2022-12-01T07:44:34.495Z,13.05
2022-12-01T07:47:03.957Z,13.98
2022-12-01T07:49:34.369Z,13.03
2022-12-01T07:52:03.871Z,13.10
2022-12-01T07:54:33.299Z,12.63
2022-12-01T07:57:02.772Z,11.95
2022-12-01T07:59:32.267Z,11.20
2022-12-01T08:02:01.826Z,13.18
2022-12-01T08:04:33.281Z,14.40
2022-12-01T08:07:02.760Z,12.75
2022-12-01T08:09:32.255Z,13.03
2022-12-01T08:12:01.767Z,12.65
2022-12-01T08:14:31.190Z,11.78
2022-12-01T08:17:00.652Z,11.70
2022-12-01T08:19:30.076Z,10.98
2022-12-01T08:21:59.562Z,10.20
2022-12-01T08:24:28.980Z,9.30
2022-12-01T08:26:58.547Z,8.90
2022-12-01T08:29:28.041Z,12.13
2022-12-01T08:31:59.735Z,11.08
2022-12-01T08:34:29.155Z,10.93
2022-12-01T08:36:58.644Z,11.67
2022-12-01T08:39:28.076Z,9.85
2022-12-01T08:41:57.602Z,9.03
2022-12-01T08:44:27.039Z,9.68
2022-12-01T08:46:56.662Z,9.73
2022-12-01T08:49:26.906Z,9.10
2022-12-01T08:51:56.336Z,9.68
2022-12-01T08:54:25.934Z,9.23
2022-12-01T08:56:55.436Z,11.80
2022-12-01T08:59:25.107Z,11.05
2022-12-01T09:01:54.589Z,9.68
2022-12-01T09:04:26.797Z,10.20
2022-12-01T09:06:58.145Z,10.87
2022-12-01T09:09:29.653Z,10.18
2022-12-01T09:11:59.210Z,9.97
2022-12-01T09:14:28.650Z,12.00
2022-12-01T09:16:58.734Z,11.55
2022-12-01T09:19:28.962Z,11.33
2022-12-01T09:21:58.607Z,10.88
2022-12-01T09:24:28.247Z,11.78
2022-12-01T09:26:59.828Z,11.73
2022-12-01T09:29:29.311Z,11.68
2022-12-01T09:32:00.373Z,12.05
2022-12-01T09:34:30.374Z,11.55
2022-12-01T09:36:59.932Z,12.43
2022-12-01T09:39:30.035Z,12.40
2022-12-01T09:42:07.641Z,11.97
2022-12-01T09:44:40.191Z,11.53
2022-12-01T09:47:21.446Z,11.38
2022-12-01T09:50:00.459Z,12.40
2022-12-01T09:52:32.816Z,11.18
2022-12-01T09:55:03.002Z,12.98
2022-12-01T09:57:35.424Z,11.88
2022-12-01T10:00:14.279Z,11.33
2022-12-01T10:02:46.770Z,11.55
2022-12-01T10:05:19.706Z,12.63
2022-12-01T10:07:55.153Z,14.15
2022-12-01T10:10:33.698Z,13.53
2022-12-01T10:13:03.802Z,14.18
2022-12-01T10:15:48.592Z,13.15
2022-12-01T10:18:42.043Z,13.83
2022-12-01T10:24:03.007Z,13.10
2022-12-01T10:27:00.114Z,17.62
2022-12-01T10:29:49.456Z,11.80
2022-12-01T10:32:29.989Z,13.20
2022-12-01T10:34:59.955Z,12.35
2022-12-01T10:37:31.885Z,12.98
2022-12-01T10:40:01.491Z,15.87
2022-12-01T10:42:42.662Z,15.23
2022-12-01T10:45:15.435Z,13.28
2022-12-01T10:48:11.001Z,15.48
2022-12-01T10:50:41.189Z,15.13
2022-12-01T10:53:13.766Z,16.23
2022-12-01T10:55:47.973Z,17.00
2022-12-01T10:58:17.635Z,13.90
2022-12-01T11:01:05.627Z,13.27
2022-12-01T11:03:24.158Z,13.05
2022-12-01T11:05:59.664Z,11.60
2022-12-01T11:08:58.156Z,11.43
2022-12-01T11:11:30.675Z,10.90
2022-12-01T11:14:03.335Z,9.70
2022-12-01T11:16:47.180Z,10.18
2022-12-01T11:19:27.519Z,12.55
2022-12-01T11:22:01.916Z,12.18
2022-12-01T11:24:46.150Z,12.00
2022-12-01T11:27:18.600Z,10.40
2022-12-01T11:29:51.883Z,10.85
2022-12-01T11:32:27.559Z,12.60
2022-12-01T11:35:03.006Z,12.10
2022-12-01T11:37:42.029Z,11.80
2022-12-01T11:40:26.617Z,10.63
2022-12-01T11:42:59.475Z,10.97
2022-12-01T11:45:34.901Z,10.03
2022-12-01T11:48:16.830Z,11.05
2022-12-01T11:51:06.416Z,10.60
2022-12-01T11:53:42.002Z,12.50
2022-12-01T11:56:17.587Z,11.40
2022-12-01T11:58:49.303Z,11.83
2022-12-01T12:01:30.931Z,13.05
2022-12-01T12:04:09.235Z,11.33
2022-12-01T12:06:41.949Z,11.05
2022-12-01T12:09:31.604Z,11.53
2022-12-01T12:12:10.407Z,12.18
2022-12-01T12:14:42.911Z,12.45
2022-12-01T12:17:18.395Z,13.05
2022-12-01T12:20:17.500Z,12.05
2022-12-01T12:23:02.202Z,13.05
2022-12-01T12:25:37.476Z,13.20
2022-12-01T12:28:15.269Z,12.20
2022-12-01T12:30:50.344Z,12.25
2022-12-01T12:33:41.243Z,12.68
2022-12-01T12:36:35.057Z,12.05
2022-12-01T12:39:26.752Z,12.53
2022-12-01T12:41:58.119Z,12.13
2022-12-01T12:44:42.641Z,13.40
2022-12-01T12:47:20.622Z,13.65
2022-12-01T12:50:11.493Z,12.78
2022-12-01T12:52:46.857Z,12.33
2022-12-01T12:55:31.427Z,12.30
2022-12-01T12:58:11.380Z,11.43
2022-12-01T13:00:44.097Z,11.05
2022-12-01T13:03:19.495Z,11.88
2022-12-01T13:05:57.818Z,11.25
2022-12-01T13:08:30.478Z,11.25
2022-12-01T13:11:03.373Z,11.08
2022-12-01T13:13:38.678Z,10.38
2022-12-01T13:16:13.879Z,10.38
2022-12-01T13:18:59.630Z,10.60
2022-12-01T13:21:32.192Z,10.95
2022-12-01T13:24:03.517Z,11.63
2022-12-01T13:26:35.093Z,10.55
2022-12-01T13:29:07.623Z,11.90
2022-12-01T13:31:44.094Z,11.08
2022-12-01T13:34:19.238Z,10.93
2022-12-01T13:36:53.868Z,10.78
2022-12-01T13:39:28.897Z,10.80
2022-12-01T13:42:01.441Z,11.25
2022-12-01T13:44:39.756Z,10.78
2022-12-01T13:47:15.250Z,10.85
2022-12-01T13:49:50.198Z,12.73
2022-12-01T13:52:26.779Z,10.97
2022-12-01T13:55:14.263Z,10.90
2022-12-01T13:57:52.674Z,10.70
2022-12-01T14:00:28.950Z,10.80
2022-12-01T14:05:57.331Z,11.18
2022-12-01T14:08:31.861Z,11.83
2022-12-01T14:11:04.490Z,13.08
2022-12-01T14:13:37.142Z,13.40
2022-12-01T14:16:07.196Z,13.50
2022-12-01T14:18:42.629Z,14.80
2022-12-01T14:21:14.877Z,18.50
2022-12-01T14:24:01.962Z,17.92
2022-12-01T14:26:32.303Z,17.48
2022-12-01T14:29:04.918Z,22.80
2022-12-01T14:31:37.990Z,19.12
2022-12-01T14:34:24.283Z,14.45
2022-12-01T14:37:12.889Z,14.35
2022-12-01T14:40:06.632Z,17.20
2022-12-01T14:43:02.921Z,20.43
2022-12-01T14:45:35.569Z,24.12
2022-12-01T14:50:53.611Z,18.73
2022-12-01T14:53:26.176Z,18.35
2022-12-01T14:55:58.883Z,14.03
2022-12-01T14:58:31.705Z,14.30
2022-12-01T15:01:08.531Z,13.15
2022-12-01T15:03:43.912Z,14.35
2022-12-01T15:06:19.308Z,14.38
2022-12-01T15:09:10.397Z,12.45
2022-12-01T15:11:25.789Z,15.08
2022-12-01T15:13:58.161Z,16.90
2022-12-01T15:16:31.024Z,13.33
2022-12-01T15:21:32.028Z,11.50
2022-12-01T15:26:38.153Z,11.55
2022-12-01T15:29:31.556Z,10.63
2022-12-01T15:32:07.287Z,11.45
2022-12-01T15:34:39.915Z,10.73
2022-12-01T15:37:12.546Z,12.68
2022-12-01T15:39:55.684Z,10.93
2022-12-01T15:42:33.233Z,11.45
2022-12-01T15:47:48.280Z,10.98
2022-12-01T15:50:31.258Z,12.28
2022-12-01T15:53:09.822Z,12.20
2022-12-01T15:55:40.443Z,11.25
2022-12-01T15:58:12.552Z,11.78
2022-12-01T16:00:42.294Z,11.73
2022-12-01T16:03:14.515Z,12.50
2022-12-01T16:05:45.789Z,15.60
2022-12-01T16:08:20.639Z,24.37
2022-12-01T16:11:15.985Z,54.17
2022-12-01T16:14:00.481Z,71.67
2022-12-01T16:16:50.386Z,22.45
2022-12-01T16:19:36.139Z,34.67
2022-12-01T16:22:14.706Z,18.42
2022-12-01T16:24:55.747Z,14.35
2022-12-01T16:27:30.974Z,15.80
2022-12-01T16:30:06.560Z,18.92
2022-12-01T16:32:41.033Z,14.25
2022-12-01T16:37:53.343Z,12.75
2022-12-01T16:40:22.909Z,12.47
2022-12-01T16:45:21.570Z,12.98
2022-12-01T16:47:51.584Z,14.95
2022-12-01T16:50:23.105Z,26.05
2022-12-01T16:52:52.764Z,28.02
2022-12-01T16:55:25.566Z,19.23
2022-12-01T16:57:55.863Z,20.68
2022-12-01T17:00:26.008Z,21.60
2022-12-01T17:02:55.770Z,14.58
2022-12-01T17:05:26.102Z,31.23
2022-12-01T17:07:55.910Z,27.07
2022-12-01T17:10:26.041Z,17.92
2022-12-01T17:12:55.702Z,16.55
2022-12-01T17:15:25.837Z,23.73
2022-12-01T17:20:24.351Z,18.80
2022-12-01T17:22:54.115Z,23.55
2022-12-01T17:25:25.323Z,21.05
2022-12-01T17:27:55.058Z,22.35
2022-12-01T17:30:25.254Z,23.07
2022-12-01T17:35:24.022Z,19.62
2022-12-01T17:37:53.940Z,17.90
2022-12-01T17:42:53.600Z,16.27
2022-12-01T17:45:23.118Z,19.27
2022-12-01T17:47:52.864Z,18.00
2022-12-01T17:50:22.765Z,20.77
2022-12-01T17:52:52.338Z,18.62
2022-12-01T17:55:22.015Z,19.65
2022-12-01T17:57:51.916Z,19.42
2022-12-01T18:00:22.819Z,21.25
2022-12-01T18:02:52.519Z,17.27
2022-12-01T18:05:22.277Z,15.63
2022-12-01T18:07:52.532Z,15.60
2022-12-01T18:10:22.687Z,18.05
2022-12-01T18:12:52.382Z,17.12
2022-12-01T18:15:22.119Z,16.82
2022-12-01T18:17:52.686Z,17.02
2022-12-01T18:20:22.252Z,17.05
2022-12-01T18:22:51.754Z,19.27
2022-12-01T18:27:51.352Z,17.40
2022-12-01T18:30:20.945Z,16.12
2022-12-01T18:32:50.384Z,15.95
2022-12-01T18:35:19.954Z,14.20
2022-12-01T18:37:49.547Z,14.20
2022-12-01T18:40:19.119Z,16.32
2022-12-01T18:42:50.377Z,15.85
2022-12-01T18:45:21.437Z,15.90
2022-12-01T18:47:50.959Z,16.80
2022-12-01T18:50:20.377Z,15.20
2022-12-01T18:52:49.805Z,14.00
2022-12-01T18:55:19.379Z,14.78
2022-12-01T18:57:48.797Z,16.15
2022-12-01T19:00:19.366Z,15.10
2022-12-01T19:02:48.781Z,17.52
2022-12-01T19:05:18.285Z,16.73
2022-12-01T19:07:48.161Z,16.02
2022-12-01T19:10:17.988Z,16.25
2022-12-01T19:12:47.489Z,16.05
2022-12-01T19:15:17.032Z,14.18
2022-12-01T19:17:46.523Z,16.55
2022-12-01T19:20:16.024Z,15.40
2022-12-01T19:22:45.481Z,23.22
2022-12-01T19:25:14.978Z,17.63
2022-12-01T19:27:44.484Z,16.40
2022-12-01T19:30:14.234Z,17.40
2022-12-01T19:32:43.943Z,17.40
2022-12-01T19:35:13.452Z,16.67
2022-12-01T19:37:43.012Z,21.50
2022-12-01T19:40:13.547Z,18.05
2022-12-01T19:45:12.447Z,19.12
2022-12-01T19:47:41.880Z,17.65
2022-12-01T19:50:11.721Z,20.50
2022-12-01T19:52:41.742Z,25.95
2022-12-01T19:55:11.957Z,21.48
2022-12-01T19:57:41.392Z,16.40
2022-12-01T20:00:12.309Z,25.70
2022-12-01T20:02:41.185Z,19.20
2022-12-01T20:05:10.869Z,17.57
2022-12-01T20:07:40.428Z,19.20
2022-12-01T20:10:10.768Z,22.48
2022-12-01T20:12:40.361Z,22.40
2022-12-01T20:15:10.736Z,19.20
2022-12-01T20:17:40.171Z,17.00
2022-12-01T20:20:10.780Z,19.42
2022-12-01T20:22:40.289Z,19.80
2022-12-01T20:25:10.181Z,16.32
2022-12-01T20:27:39.749Z,14.25
2022-12-01T20:30:10.539Z,14.83
2022-12-01T20:32:40.043Z,17.55
2022-12-01T20:35:11.394Z,18.17
2022-12-01T20:37:42.044Z,16.17
2022-12-01T20:40:12.368Z,17.20
2022-12-01T20:42:41.806Z,21.15
2022-12-01T20:45:11.293Z,20.02
2022-12-01T20:47:41.109Z,27.97
2022-12-01T20:50:10.918Z,18.27
2022-12-01T20:52:41.396Z,21.33
2022-12-01T20:55:10.975Z,19.40
2022-12-01T20:57:40.403Z,19.40
2022-12-01T21:00:12.215Z,16.60
2022-12-01T21:02:43.731Z,16.33
2022-12-01T21:05:13.318Z,13.70
2022-12-01T21:07:42.840Z,14.63
2022-12-01T21:10:16.993Z,42.75
2022-12-01T21:13:03.795Z,23.25
2022-12-01T21:15:36.371Z,14.25
2022-12-01T21:18:08.601Z,16.02
2022-12-01T21:20:43.085Z,15.58
2022-12-01T21:23:19.903Z,17.37
2022-12-01T21:25:51.398Z,18.65
2022-12-01T21:28:25.903Z,15.18
2022-12-01T21:30:58.499Z,13.90
2022-12-01T21:36:00.384Z,18.35
2022-12-01T21:38:31.514Z,14.07
2022-12-01T21:43:35.227Z,13.65
2022-12-01T21:51:05.212Z,14.50
2022-12-01T21:56:07.009Z,13.60
2022-12-01T21:58:38.152Z,13.03
2022-12-01T22:01:10.775Z,14.20
2022-12-01T22:03:43.240Z,11.80
2022-12-01T22:06:34.924Z,14.05
2022-12-01T22:09:13.827Z,13.43
2022-12-01T22:11:45.992Z,13.98
2022-12-01T22:14:24.549Z,12.50
2022-12-01T22:17:00.611Z,12.18
2022-12-01T22:19:35.110Z,12.58
2022-12-01T22:22:15.020Z,12.33
2022-12-01T22:24:47.101Z,11.93
2022-12-01T22:27:31.976Z,12.07
2022-12-01T22:30:04.486Z,12.15
2022-12-01T22:32:37.418Z,11.88
2022-12-01T22:35:14.635Z,12.78
2022-12-01T22:37:50.082Z,11.75
2022-12-01T22:40:37.674Z,10.60
2022-12-01T22:43:15.968Z,11.35
2022-12-01T22:45:51.007Z,12.33
2022-12-01T22:48:32.442Z,12.53
2022-12-01T22:51:26.703Z,14.18
2022-12-01T22:54:17.184Z,12.10
2022-12-01T22:56:49.599Z,12.30
2022-12-01T22:59:30.526Z,13.88
2022-12-01T23:02:02.545Z,14.25
2022-12-01T23:04:41.117Z,15.03
2022-12-01T23:07:25.500Z,13.68
2022-12-01T23:09:56.559Z,14.30
2022-12-01T23:12:31.695Z,12.65
2022-12-01T23:15:19.132Z,12.75
2022-12-01T23:17:49.229Z,12.80
2022-12-01T23:20:35.547Z,15.15
2022-12-01T23:23:08.110Z,14.15
2022-12-01T23:25:37.620Z,14.20
2022-12-01T23:28:09.878Z,13.55
2022-12-01T23:30:41.852Z,12.25
2022-12-01T23:33:17.098Z,11.95
2022-12-01T23:36:07.522Z,13.00
2022-12-01T23:38:39.804Z,11.75
2022-12-01T23:43:42.532Z,11.78
2022-12-01T23:46:17.129Z,10.85
2022-12-01T23:48:49.689Z,11.93
2022-12-01T23:51:28.038Z,11.70
2022-12-01T23:53:58.709Z,12.55
2022-12-01T23:56:30.891Z,13.00
2022-12-01T23:59:02.424Z,13.03
